createdAt,value
2023-06-25T00:01:09.221Z,101002.87
2023-06-25T00:03:56.891Z,101001.09
2023-06-25T00:06:29.638Z,101001.88
2023-06-25T00:09:00.232Z,101006.58
2023-06-25T00:11:32.467Z,101006.64
2023-06-25T00:14:05.742Z,101002.94
2023-06-25T00:16:37.916Z,101006.35
2023-06-25T00:19:10.387Z,101007.56
2023-06-25T00:21:43.061Z,101006.00
2023-06-25T00:24:15.705Z,101003.98
2023-06-25T00:26:46.780Z,101006.27
2023-06-25T00:29:18.884Z,101002.24
2023-06-25T00:31:51.119Z,100998.95
2023-06-25T00:34:23.250Z,100997.08
2023-06-25T00:36:55.929Z,100992.82
2023-06-25T00:39:28.579Z,100993.63
2023-06-25T00:42:05.154Z,100995.77
2023-06-25T00:44:41.842Z,100995.27
2023-06-25T00:47:15.551Z,100989.91
2023-06-25T00:49:49.267Z,100987.70
2023-06-25T00:52:21.598Z,100993.23
2023-06-25T00:54:53.868Z,100990.02
2023-06-25T00:57:28.357Z,100989.84
2023-06-25T01:00:01.132Z,100992.66
2023-06-25T01:02:44.552Z,100997.13
2023-06-25T01:05:22.374Z,100993.52
2023-06-25T01:07:58.496Z,100986.55
2023-06-25T01:10:30.754Z,100988.20
2023-06-25T01:13:03.003Z,100986.20
2023-06-25T01:15:35.545Z,100985.80
2023-06-25T01:18:08.467Z,100987.99
2023-06-25T01:20:39.515Z,100988.25
2023-06-25T01:23:12.157Z,100983.29
2023-06-25T01:25:48.410Z,100979.71
2023-06-25T01:28:21.449Z,100978.52
2023-06-25T01:30:54.390Z,100978.17
2023-06-25T01:33:27.759Z,100982.52
2023-06-25T01:35:59.967Z,100975.20
2023-06-25T01:38:32.542Z,100980.95
2023-06-25T01:41:03.173Z,100975.92
2023-06-25T01:43:35.248Z,100976.35
2023-06-25T01:46:07.615Z,100973.69
2023-06-25T01:48:40.027Z,100970.95
2023-06-25T01:51:12.403Z,100972.11
2023-06-25T01:53:44.549Z,100968.86
2023-06-25T01:56:16.585Z,100967.63
2023-06-25T01:58:51.372Z,100965.85
2023-06-25T02:01:23.565Z,100973.46
2023-06-25T02:03:55.939Z,100969.92
2023-06-25T02:06:28.585Z,100966.87
2023-06-25T02:09:01.505Z,100963.67
2023-06-25T02:11:37.106Z,100962.42
2023-06-25T02:14:10.166Z,100959.36
2023-06-25T02:16:42.219Z,100957.89
2023-06-25T02:19:14.474Z,100958.98
2023-06-25T02:21:46.715Z,100959.75
2023-06-25T02:24:21.210Z,100957.14
2023-06-25T02:26:53.888Z,100959.61
2023-06-25T02:29:24.666Z,100958.83
2023-06-25T02:31:57.597Z,100961.74
2023-06-25T02:34:30.311Z,100961.45
2023-06-25T02:37:12.520Z,100963.36
2023-06-25T02:39:45.211Z,100967.59
2023-06-25T02:42:15.800Z,100969.34
2023-06-25T02:44:48.266Z,100964.20
2023-06-25T02:47:20.411Z,100964.85
2023-06-25T02:49:53.191Z,100966.23
2023-06-25T02:52:23.931Z,100964.46
2023-06-25T02:54:56.593Z,100964.16
2023-06-25T02:57:30.663Z,100965.97
2023-06-25T03:00:06.244Z,100965.58
2023-06-25T03:02:40.067Z,100963.32
2023-06-25T03:05:13.865Z,100964.50
2023-06-25T03:07:55.860Z,100958.92
2023-06-25T03:10:31.093Z,100947.96
2023-06-25T03:13:04.607Z,100950.46
2023-06-25T03:15:38.446Z,100950.55
2023-06-25T03:18:11.910Z,100947.26
2023-06-25T03:20:46.074Z,100950.86
2023-06-25T03:23:21.777Z,100950.52
2023-06-25T03:25:56.486Z,100950.92
2023-06-25T03:28:33.292Z,100949.89
2023-06-25T03:31:07.525Z,100952.17
2023-06-25T03:33:48.969Z,100949.41
2023-06-25T03:36:26.396Z,100949.88
2023-06-25T03:39:00.905Z,100947.27
2023-06-25T03:41:34.557Z,100951.13
2023-06-25T03:44:09.294Z,100948.14
2023-06-25T03:46:42.788Z,100947.61
2023-06-25T03:49:17.363Z,100943.69
2023-06-25T03:51:51.021Z,100945.34
2023-06-25T03:54:24.469Z,100951.47
2023-06-25T03:56:59.882Z,100949.10
2023-06-25T03:59:34.132Z,100951.58
2023-06-25T04:02:08.999Z,100953.16
2023-06-25T04:04:45.061Z,100949.35
2023-06-25T04:07:18.188Z,100950.38
2023-06-25T04:09:51.618Z,100951.75
2023-06-25T04:12:25.006Z,100943.83
2023-06-25T04:14:59.433Z,100946.48
2023-06-25T04:17:33.091Z,100949.31
2023-06-25T04:20:07.407Z,100950.61
2023-06-25T04:22:40.884Z,100952.13
2023-06-25T04:25:13.839Z,100951.77
2023-06-25T04:27:50.306Z,100945.06
2023-06-25T04:30:25.237Z,100948.27
2023-06-25T04:33:00.319Z,100937.91
2023-06-25T04:35:36.061Z,100950.79
2023-06-25T04:38:12.162Z,100951.76
2023-06-25T04:40:46.105Z,100948.27
2023-06-25T04:43:19.251Z,100947.09
2023-06-25T04:45:53.261Z,100942.92
2023-06-25T04:48:26.623Z,100943.00
2023-06-25T04:51:02.191Z,100943.37
2023-06-25T04:53:35.169Z,100942.21
2023-06-25T04:56:08.774Z,100944.30
2023-06-25T04:58:41.836Z,100943.84
2023-06-25T05:01:14.386Z,100949.79
2023-06-25T05:03:47.403Z,100948.61
2023-06-25T05:06:23.255Z,100946.27
2023-06-25T05:08:57.105Z,100939.16
2023-06-25T05:11:31.453Z,100942.01
2023-06-25T05:14:09.077Z,100931.76
2023-06-25T05:16:43.380Z,100931.52
2023-06-25T05:19:22.934Z,100927.27
2023-06-25T05:21:56.867Z,100927.84
2023-06-25T05:24:31.357Z,100929.65
2023-06-25T05:27:05.860Z,100929.52
2023-06-25T05:29:39.390Z,100935.00
2023-06-25T05:32:13.263Z,100934.67
2023-06-25T05:34:46.625Z,100933.89
2023-06-25T05:37:23.155Z,100940.73
2023-06-25T05:39:56.121Z,100944.46
2023-06-25T05:42:30.574Z,100943.66
2023-06-25T05:45:03.889Z,100944.33
2023-06-25T05:47:37.642Z,100948.54
2023-06-25T05:50:12.415Z,100952.38
2023-06-25T05:52:46.154Z,100950.61
2023-06-25T05:55:19.900Z,100955.21
2023-06-25T05:57:56.098Z,100954.95
2023-06-25T06:00:29.761Z,100954.59
2023-06-25T06:03:03.661Z,100955.00
2023-06-25T06:05:38.532Z,100955.71
2023-06-25T06:08:12.317Z,100952.79
2023-06-25T06:10:46.674Z,100947.63
2023-06-25T06:13:20.576Z,100945.98
2023-06-25T06:15:55.073Z,100927.52
2023-06-25T06:18:29.791Z,100944.92
2023-06-25T06:21:06.081Z,100941.05
2023-06-25T06:23:39.089Z,100935.79
2023-06-25T06:26:12.885Z,100938.55
2023-06-25T06:28:46.086Z,100935.89
2023-06-25T06:31:20.394Z,100937.31
2023-06-25T06:33:55.114Z,100944.00
2023-06-25T06:36:29.242Z,100942.61
2023-06-25T06:39:04.066Z,100942.88
2023-06-25T06:41:49.464Z,100941.55
2023-06-25T06:44:24.798Z,100941.98
2023-06-25T06:47:01.468Z,100943.78
2023-06-25T06:49:42.017Z,100944.66
2023-06-25T06:52:17.931Z,100945.73
2023-06-25T06:54:51.274Z,100947.44
2023-06-25T06:57:25.406Z,100944.95
2023-06-25T06:59:58.658Z,100946.45
2023-06-25T07:02:32.513Z,100942.27
2023-06-25T07:05:05.717Z,100934.98
2023-06-25T07:07:38.462Z,100934.77
2023-06-25T07:10:12.574Z,100933.80
2023-06-25T07:12:45.685Z,100932.51
2023-06-25T07:15:18.727Z,100930.35
2023-06-25T07:17:52.345Z,100927.67
2023-06-25T07:20:25.685Z,100926.29
2023-06-25T07:22:58.847Z,100922.48
2023-06-25T07:25:33.159Z,100924.30
2023-06-25T07:28:06.919Z,100923.55
2023-06-25T07:30:40.216Z,100923.38
2023-06-25T07:33:13.241Z,100923.61
2023-06-25T07:35:46.315Z,100916.57
2023-06-25T07:38:19.660Z,100919.98
2023-06-25T07:40:52.934Z,100922.37
2023-06-25T07:43:27.848Z,100914.48
2023-06-25T07:46:02.792Z,100911.84
2023-06-25T07:48:39.094Z,100917.98
2023-06-25T07:51:12.611Z,100913.83
2023-06-25T07:53:45.680Z,100911.57
2023-06-25T07:56:19.046Z,100914.81
2023-06-25T07:58:52.442Z,100915.08
2023-06-25T08:01:25.664Z,100911.77
2023-06-25T08:03:59.057Z,100902.95
2023-06-25T08:06:34.715Z,100916.23
2023-06-25T08:09:11.875Z,100912.30
2023-06-25T08:11:46.534Z,100914.30
2023-06-25T08:14:19.200Z,100909.19
2023-06-25T08:16:56.597Z,100903.27
2023-06-25T08:19:30.716Z,100905.49
2023-06-25T08:22:05.188Z,100907.98
2023-06-25T08:24:39.609Z,100904.66
2023-06-25T08:27:12.283Z,100912.88
2023-06-25T08:29:47.049Z,100913.14
2023-06-25T08:32:21.123Z,100907.67
2023-06-25T08:34:56.907Z,100906.47
2023-06-25T08:37:32.768Z,100905.42
2023-06-25T08:40:13.145Z,100905.46
2023-06-25T08:42:47.921Z,100898.32
2023-06-25T08:45:22.677Z,100897.20
2023-06-25T08:48:02.084Z,100897.30
2023-06-25T08:50:35.383Z,100890.34
2023-06-25T08:53:09.185Z,100893.80
2023-06-25T08:55:47.236Z,100894.40
2023-06-25T08:58:22.148Z,100889.88
2023-06-25T09:00:55.779Z,100887.99
2023-06-25T09:03:30.003Z,100889.19
2023-06-25T09:06:05.839Z,100893.67
2023-06-25T09:08:45.511Z,100896.13
2023-06-25T09:11:20.658Z,100892.43
2023-06-25T09:13:59.034Z,100887.42
2023-06-25T09:16:33.460Z,100893.32
2023-06-25T09:19:24.291Z,100888.56
2023-06-25T09:22:14.681Z,100886.79
2023-06-25T09:24:50.024Z,100884.58
2023-06-25T09:27:25.632Z,100882.30
2023-06-25T09:30:04.612Z,100878.45
2023-06-25T09:32:39.183Z,100879.96
2023-06-25T09:35:13.053Z,100876.62
2023-06-25T09:37:46.863Z,100877.69
2023-06-25T09:40:23.413Z,100879.29
2023-06-25T09:42:58.139Z,100872.77
2023-06-25T09:45:32.658Z,100873.79
2023-06-25T09:48:12.628Z,100871.05
2023-06-25T09:50:50.192Z,100868.23
2023-06-25T09:53:29.441Z,100868.94
2023-06-25T09:56:05.417Z,100869.52
2023-06-25T09:58:39.674Z,100866.73
2023-06-25T10:01:13.683Z,100869.89
2023-06-25T10:03:47.763Z,100864.35
2023-06-25T10:06:21.542Z,100864.33
2023-06-25T10:08:57.202Z,100861.52
2023-06-25T10:11:31.294Z,100863.27
2023-06-25T10:14:07.582Z,100859.73
2023-06-25T10:16:41.537Z,100858.75
2023-06-25T10:19:24.611Z,100860.64
2023-06-25T10:22:12.166Z,100863.71
2023-06-25T10:24:50.253Z,100863.52
2023-06-25T10:27:32.288Z,100860.64
2023-06-25T10:30:16.382Z,100857.78
2023-06-25T10:32:50.251Z,100858.16
2023-06-25T10:35:23.565Z,100851.90
2023-06-25T10:37:57.210Z,100845.38
2023-06-25T10:40:37.695Z,100845.66
2023-06-25T10:43:18.142Z,100842.02
2023-06-25T10:45:55.774Z,100839.75
2023-06-25T10:48:30.360Z,100841.61
2023-06-25T10:51:04.260Z,100847.06
2023-06-25T10:53:38.491Z,100841.79
2023-06-25T10:56:12.180Z,100842.94
2023-06-25T10:58:45.757Z,100826.96
2023-06-25T11:01:19.466Z,100822.85
2023-06-25T11:03:52.881Z,100823.43
2023-06-25T11:06:25.864Z,100825.72
2023-06-25T11:09:00.747Z,100821.48
2023-06-25T11:11:35.491Z,100827.55
2023-06-25T11:14:09.490Z,100820.65
2023-06-25T11:16:49.300Z,100816.83
2023-06-25T11:19:23.847Z,100814.46
2023-06-25T11:21:58.336Z,100816.04
2023-06-25T11:24:41.527Z,100820.08
2023-06-25T11:27:24.550Z,100810.09
2023-06-25T11:29:59.652Z,100809.55
2023-06-25T11:32:35.572Z,100808.40
2023-06-25T11:35:16.356Z,100805.95
2023-06-25T11:37:51.386Z,100805.39
2023-06-25T11:40:29.208Z,100802.79
2023-06-25T11:43:03.215Z,100800.04
2023-06-25T11:45:45.454Z,100796.65
2023-06-25T11:48:21.747Z,100791.29
2023-06-25T11:50:55.592Z,100791.34
2023-06-25T11:53:28.216Z,100783.84
2023-06-25T11:55:58.569Z,100785.03
2023-06-25T11:58:30.937Z,100783.17
2023-06-25T12:01:01.423Z,100780.79
2023-06-25T12:03:35.045Z,100779.76
2023-06-25T12:06:08.167Z,100778.55
2023-06-25T12:08:40.142Z,100775.02
2023-06-25T12:11:14.686Z,100772.70
2023-06-25T12:13:46.995Z,100770.89
2023-06-25T12:16:19.478Z,100765.88
2023-06-25T12:18:49.754Z,100760.57
2023-06-25T12:21:21.597Z,100760.21
2023-06-25T12:23:53.460Z,100759.23
2023-06-25T12:26:25.302Z,100753.29
2023-06-25T12:28:57.133Z,100758.35
2023-06-25T12:31:29.453Z,100752.30
2023-06-25T12:34:02.042Z,100750.36
2023-06-25T12:36:34.478Z,100745.63
2023-06-25T12:39:06.508Z,100747.60
2023-06-25T12:41:38.940Z,100744.34
2023-06-25T12:44:11.099Z,100743.98
2023-06-25T12:46:42.999Z,100740.05
2023-06-25T12:49:14.125Z,100735.81
2023-06-25T12:51:46.435Z,100732.04
2023-06-25T12:54:18.274Z,100735.64
2023-06-25T12:56:50.245Z,100734.77
2023-06-25T12:59:22.095Z,100731.79
2023-06-25T13:01:57.649Z,100732.91
2023-06-25T13:04:29.797Z,100726.08
2023-06-25T13:07:01.884Z,100727.12
2023-06-25T13:09:34.788Z,100727.00
2023-06-25T13:12:07.459Z,100726.92
2023-06-25T13:14:39.766Z,100728.02
2023-06-25T13:17:11.793Z,100729.67
2023-06-25T13:19:44.147Z,100728.92
2023-06-25T13:22:16.589Z,100723.97
2023-06-25T13:24:48.428Z,100721.25
2023-06-25T13:27:20.346Z,100718.71
2023-06-25T13:29:52.333Z,100719.30
2023-06-25T13:32:24.616Z,100710.09
2023-06-25T13:34:56.524Z,100705.12
2023-06-25T13:37:28.702Z,100701.84
2023-06-25T13:40:00.759Z,100699.78
2023-06-25T13:42:34.222Z,100697.77
2023-06-25T13:45:06.842Z,100700.36
2023-06-25T13:47:38.696Z,100695.08
2023-06-25T13:50:12.155Z,100694.92
2023-06-25T13:52:44.109Z,100684.14
2023-06-25T13:55:17.672Z,100686.60
2023-06-25T13:57:49.583Z,100683.84
2023-06-25T14:00:21.760Z,100682.27
2023-06-25T14:03:10.612Z,100680.06
2023-06-25T14:05:45.828Z,100674.09
2023-06-25T14:08:18.053Z,100672.48
2023-06-25T14:10:50.157Z,100672.64
2023-06-25T14:13:23.370Z,100673.73
2023-06-25T14:16:05.947Z,100675.95
2023-06-25T14:18:47.210Z,100665.52
2023-06-25T14:21:20.278Z,100664.52
2023-06-25T14:23:53.008Z,100665.38
2023-06-25T14:26:23.367Z,100656.55
2023-06-25T14:29:06.617Z,100665.90
2023-06-25T14:31:42.894Z,100666.09
2023-06-25T14:34:14.875Z,100656.14
2023-06-25T14:36:47.114Z,100652.52
2023-06-25T14:39:17.551Z,100653.21
2023-06-25T14:41:49.638Z,100653.96
2023-06-25T14:44:21.516Z,100655.43
2023-06-25T14:46:53.438Z,100652.33
2023-06-25T14:49:25.482Z,100653.42
2023-06-25T14:51:57.826Z,100658.36
2023-06-25T14:54:29.708Z,100651.59
2023-06-25T14:57:01.592Z,100648.56
2023-06-25T14:59:33.768Z,100647.29
2023-06-25T15:02:05.971Z,100647.61
2023-06-25T15:04:39.946Z,100643.33
2023-06-25T15:07:12.389Z,100647.48
2023-06-25T15:09:44.298Z,100646.94
2023-06-25T15:12:16.271Z,100643.60
2023-06-25T15:14:48.362Z,100640.77
2023-06-25T15:17:20.359Z,100636.63
2023-06-25T15:19:52.305Z,100637.73
2023-06-25T15:22:24.300Z,100637.20
2023-06-25T15:24:56.256Z,100635.73
2023-06-25T15:27:29.112Z,100628.91
2023-06-25T15:30:02.711Z,100628.81
2023-06-25T15:32:37.813Z,100629.37
2023-06-25T15:35:11.357Z,100623.56
2023-06-25T15:37:43.842Z,100621.30
2023-06-25T15:40:16.431Z,100621.81
2023-06-25T15:42:48.418Z,100616.06
2023-06-25T15:45:19.337Z,100610.74
2023-06-25T15:47:51.448Z,100610.31
2023-06-25T15:50:23.676Z,100604.06
2023-06-25T15:52:55.818Z,100602.65
2023-06-25T15:55:28.457Z,100599.80
2023-06-25T15:58:02.820Z,100601.08
2023-06-25T16:00:36.186Z,100598.80
2023-06-25T16:03:10.034Z,100601.90
2023-06-25T16:05:42.555Z,100599.15
2023-06-25T16:08:14.928Z,100595.27
2023-06-25T16:10:47.230Z,100598.32
2023-06-25T16:13:19.244Z,100593.39
2023-06-25T16:15:50.847Z,100592.70
2023-06-25T16:18:22.855Z,100593.73
2023-06-25T16:20:54.871Z,100591.41
2023-06-25T16:23:26.817Z,100587.98
2023-06-25T16:25:59.044Z,100589.37
2023-06-25T16:28:31.935Z,100585.30
2023-06-25T16:31:04.381Z,100584.02
2023-06-25T16:33:36.874Z,100583.52
2023-06-25T16:36:09.777Z,100578.92
2023-06-25T16:38:41.788Z,100582.27
2023-06-25T16:41:12.475Z,100578.36
2023-06-25T16:43:44.237Z,100580.26
2023-06-25T16:46:16.318Z,100577.90
2023-06-25T16:48:47.706Z,100582.00
2023-06-25T16:51:21.385Z,100580.56
2023-06-25T16:53:54.560Z,100583.29
2023-06-25T16:56:26.738Z,100581.91
2023-06-25T16:58:59.061Z,100580.56
2023-06-25T17:01:31.184Z,100579.73
2023-06-25T17:04:04.794Z,100579.09
2023-06-25T17:06:38.919Z,100584.98
2023-06-25T17:09:11.191Z,100579.40
2023-06-25T17:11:43.936Z,100581.56
2023-06-25T17:14:16.548Z,100576.02
2023-06-25T17:16:48.678Z,100574.05
2023-06-25T17:19:19.376Z,100573.83
2023-06-25T17:21:52.258Z,100575.08
2023-06-25T17:24:24.323Z,100572.10
2023-06-25T17:26:57.062Z,100573.71
2023-06-25T17:29:29.165Z,100573.78
2023-06-25T17:32:01.860Z,100578.27
2023-06-25T17:34:34.175Z,100580.80
2023-06-25T17:37:09.533Z,100573.85
2023-06-25T17:39:42.193Z,100568.48
2023-06-25T17:42:31.993Z,100568.52
2023-06-25T17:45:22.450Z,100566.15
2023-06-25T17:47:54.829Z,100568.55
2023-06-25T17:50:26.928Z,100566.59
2023-06-25T17:52:59.571Z,100567.32
2023-06-25T17:55:32.165Z,100567.05
2023-06-25T17:58:04.261Z,100563.25
2023-06-25T18:00:37.020Z,100562.11
2023-06-25T18:03:09.269Z,100561.91
2023-06-25T18:05:41.764Z,100559.88
2023-06-25T18:08:13.822Z,100559.16
2023-06-25T18:10:46.378Z,100557.67
2023-06-25T18:13:17.093Z,100556.59
2023-06-25T18:15:49.333Z,100553.98
2023-06-25T18:18:20.959Z,100556.92
2023-06-25T18:20:54.409Z,100554.42
2023-06-25T18:23:26.459Z,100555.20
2023-06-25T18:25:58.371Z,100555.55
2023-06-25T18:28:30.253Z,100556.38
2023-06-25T18:31:04.738Z,100557.95
2023-06-25T18:33:37.032Z,100557.34
2023-06-25T18:36:10.372Z,100556.81
2023-06-25T18:38:42.275Z,100557.55
2023-06-25T18:41:14.386Z,100554.33
2023-06-25T18:43:46.804Z,100552.70
2023-06-25T18:46:19.190Z,100549.39
2023-06-25T18:48:51.025Z,100549.10
2023-06-25T18:51:21.888Z,100550.57
2023-06-25T18:53:53.716Z,100545.59
2023-06-25T18:56:25.581Z,100547.02
2023-06-25T18:58:57.394Z,100545.93
2023-06-25T19:01:29.296Z,100541.27
2023-06-25T19:04:02.744Z,100544.73
2023-06-25T19:06:33.260Z,100542.66
2023-06-25T19:09:05.840Z,100542.90
2023-06-25T19:11:37.714Z,100542.46
2023-06-25T19:14:10.525Z,100539.14
2023-06-25T19:16:40.982Z,100540.80
2023-06-25T19:19:12.934Z,100542.55
2023-06-25T19:21:45.561Z,100545.48
2023-06-25T19:24:17.683Z,100542.00
2023-06-25T19:26:49.781Z,100549.95
2023-06-25T19:29:22.090Z,100548.45
2023-06-25T19:31:54.237Z,100551.55
2023-06-25T19:34:27.238Z,100553.02
2023-06-25T19:36:59.920Z,100553.06
2023-06-25T19:39:32.278Z,100553.16
2023-06-25T19:42:04.412Z,100554.63
2023-06-25T19:44:36.868Z,100552.81
2023-06-25T19:47:09.508Z,100554.03
2023-06-25T19:49:41.545Z,100557.21
2023-06-25T19:52:13.658Z,100555.11
2023-06-25T19:54:47.094Z,100552.61
2023-06-25T19:57:19.197Z,100552.02
2023-06-25T19:59:51.338Z,100552.94
2023-06-25T20:02:23.278Z,100550.08
2023-06-25T20:04:55.395Z,100548.59
2023-06-25T20:07:31.784Z,100550.57
2023-06-25T20:10:04.389Z,100551.59
2023-06-25T20:12:37.169Z,100549.19
2023-06-25T20:15:10.991Z,100546.73
2023-06-25T20:17:43.310Z,100547.19
2023-06-25T20:20:15.722Z,100549.53
2023-06-25T20:22:48.254Z,100549.79
2023-06-25T20:25:20.253Z,100546.91
2023-06-25T20:27:52.225Z,100548.67
2023-06-25T20:30:24.381Z,100546.21
2023-06-25T20:32:56.461Z,100551.14
2023-06-25T20:35:28.553Z,100551.02
2023-06-25T20:38:00.529Z,100544.62
2023-06-25T20:40:33.180Z,100544.61
2023-06-25T20:43:06.866Z,100548.44
2023-06-25T20:45:40.894Z,100553.52
2023-06-25T20:48:12.924Z,100554.38
2023-06-25T20:50:45.051Z,100547.08
2023-06-25T20:53:17.023Z,100551.16
2023-06-25T20:55:49.222Z,100547.77
2023-06-25T20:58:21.632Z,100551.08
2023-06-25T21:00:54.166Z,100552.88
2023-06-25T21:03:25.100Z,100553.94
2023-06-25T21:05:59.269Z,100554.45
2023-06-25T21:08:32.627Z,100557.22
2023-06-25T21:11:04.602Z,100558.92
2023-06-25T21:13:37.273Z,100556.77
2023-06-25T21:16:09.366Z,100557.23
2023-06-25T21:18:41.385Z,100558.05
2023-06-25T21:21:13.472Z,100561.40
2023-06-25T21:23:45.483Z,100562.27
2023-06-25T21:26:17.599Z,100567.33
2023-06-25T21:28:49.528Z,100568.35
2023-06-25T21:31:21.723Z,100567.96
2023-06-25T21:33:54.005Z,100565.09
2023-06-25T21:36:26.024Z,100564.00
2023-06-25T21:38:58.422Z,100561.84
2023-06-25T21:41:30.429Z,100559.23
2023-06-25T21:44:02.408Z,100559.56
2023-06-25T21:46:35.940Z,100562.34
2023-06-25T21:49:07.906Z,100561.19
2023-06-25T21:51:39.807Z,100563.93
2023-06-25T21:54:11.710Z,100561.21
2023-06-25T21:56:44.065Z,100562.38
2023-06-25T21:59:16.054Z,100563.44
2023-06-25T22:01:48.387Z,100566.64
2023-06-25T22:04:19.153Z,100566.66
2023-06-25T22:06:54.725Z,100567.88
2023-06-25T22:09:27.333Z,100561.51
2023-06-25T22:11:59.685Z,100560.67
2023-06-25T22:14:32.604Z,100563.89
2023-06-25T22:17:06.258Z,100563.83
2023-06-25T22:19:38.324Z,100563.17
2023-06-25T22:22:10.352Z,100562.73
2023-06-25T22:24:42.350Z,100564.29
2023-06-25T22:27:14.702Z,100561.92
2023-06-25T22:29:48.654Z,100556.69
2023-06-25T22:32:20.857Z,100556.83
2023-06-25T22:34:52.885Z,100555.22
2023-06-25T22:37:24.872Z,100555.55
2023-06-25T22:39:59.736Z,100557.63
2023-06-25T22:42:31.716Z,100556.10
2023-06-25T22:45:03.947Z,100555.86
2023-06-25T22:47:36.645Z,100549.61
2023-06-25T22:50:11.380Z,100553.04
2023-06-25T22:52:43.534Z,100558.65
2023-06-25T22:55:16.205Z,100557.09
2023-06-25T22:57:46.632Z,100548.35
2023-06-25T23:00:19.210Z,100559.48
2023-06-25T23:02:51.279Z,100557.52
2023-06-25T23:05:24.902Z,100557.54
2023-06-25T23:07:56.762Z,100551.36
2023-06-25T23:10:28.628Z,100550.48
2023-06-25T23:13:00.673Z,100547.59
2023-06-25T23:15:32.862Z,100544.86
2023-06-25T23:18:08.267Z,100545.06
2023-06-25T23:20:40.805Z,100545.89
2023-06-25T23:23:12.957Z,100541.05
2023-06-25T23:25:47.793Z,100537.13
2023-06-25T23:28:19.576Z,100533.94
2023-06-25T23:30:51.398Z,100530.62
2023-06-25T23:33:23.814Z,100533.33
2023-06-25T23:35:55.562Z,100533.56
2023-06-25T23:38:27.487Z,100535.27
2023-06-25T23:40:59.448Z,100528.68
2023-06-25T23:43:31.443Z,100529.14
2023-06-25T23:46:03.448Z,100527.86
2023-06-25T23:48:35.332Z,100532.59
2023-06-25T23:51:07.782Z,100529.14
2023-06-25T23:53:40.788Z,100524.34
2023-06-25T23:56:13.239Z,100526.10
2023-06-25T23:58:45.300Z,100524.88
